sensor_id;sensor_type;location;lat;lon;timestamp;P1;durP1;ratioP1;P2;durP2;ratioP2
45043;SDS011;30784;48.490;9.688;2024-02-28T00:01:36;25.27;;;14.95;;
45043;SDS011;30784;48.490;9.688;2024-02-28T00:04:02;25.75;;;15.52;;
45043;SDS011;30784;48.490;9.688;2024-02-28T00:06:27;26.90;;;15.80;;
45043;SDS011;30784;48.490;9.688;2024-02-28T00:08:53;27.58;;;15.63;;
45043;SDS011;30784;48.490;9.688;2024-02-28T00:11:19;25.60;;;14.82;;
45043;SDS011;30784;48.490;9.688;2024-02-28T00:13:45;29.20;;;16.08;;
45043;SDS011;30784;48.490;9.688;2024-02-28T00:16:11;25.88;;;15.55;;
45043;SDS011;30784;48.490;9.688;2024-02-28T00:18:37;27.58;;;15.30;;
45043;SDS011;30784;48.490;9.688;2024-02-28T00:21:02;26.85;;;15.75;;
45043;SDS011;30784;48.490;9.688;2024-02-28T00:23:28;27.35;;;16.08;;
45043;SDS011;30784;48.490;9.688;2024-02-28T00:25:55;25.98;;;15.68;;
45043;SDS011;30784;48.490;9.688;2024-02-28T00:28:20;26.38;;;15.13;;
45043;SDS011;30784;48.490;9.688;2024-02-28T00:30:46;27.17;;;16.20;;
45043;SDS011;30784;48.490;9.688;2024-02-28T00:33:11;31.67;;;18.92;;
45043;SDS011;30784;48.490;9.688;2024-02-28T00:35:37;47.45;;;29.55;;
45043;SDS011;30784;48.490;9.688;2024-02-28T00:38:04;38.15;;;23.42;;
45043;SDS011;30784;48.490;9.688;2024-02-28T00:40:30;30.23;;;17.98;;
45043;SDS011;30784;48.490;9.688;2024-02-28T00:42:56;27.38;;;16.33;;
45043;SDS011;30784;48.490;9.688;2024-02-28T00:45:22;29.73;;;17.35;;
45043;SDS011;30784;48.490;9.688;2024-02-28T00:47:48;26.80;;;16.13;;
45043;SDS011;30784;48.490;9.688;2024-02-28T00:50:13;27.38;;;16.75;;
45043;SDS011;30784;48.490;9.688;2024-02-28T00:52:39;27.63;;;16.42;;
45043;SDS011;30784;48.490;9.688;2024-02-28T00:55:05;27.40;;;16.27;;
45043;SDS011;30784;48.490;9.688;2024-02-28T00:57:31;27.40;;;16.08;;
45043;SDS011;30784;48.490;9.688;2024-02-28T00:59:56;26.95;;;15.48;;
45043;SDS011;30784;48.490;9.688;2024-02-28T01:02:22;28.80;;;16.60;;
45043;SDS011;30784;48.490;9.688;2024-02-28T01:04:47;27.27;;;15.82;;
45043;SDS011;30784;48.490;9.688;2024-02-28T01:07:13;27.77;;;16.17;;
45043;SDS011;30784;48.490;9.688;2024-02-28T01:09:39;27.85;;;16.02;;
45043;SDS011;30784;48.490;9.688;2024-02-28T01:12:04;27.05;;;15.55;;
45043;SDS011;30784;48.490;9.688;2024-02-28T01:14:30;28.05;;;16.20;;
45043;SDS011;30784;48.490;9.688;2024-02-28T01:16:56;28.83;;;16.20;;
45043;SDS011;30784;48.490;9.688;2024-02-28T01:19:21;28.77;;;16.10;;
45043;SDS011;30784;48.490;9.688;2024-02-28T01:21:47;29.95;;;16.50;;
45043;SDS011;30784;48.490;9.688;2024-02-28T01:24:12;28.27;;;16.23;;
45043;SDS011;30784;48.490;9.688;2024-02-28T01:26:38;30.50;;;18.13;;
45043;SDS011;30784;48.490;9.688;2024-02-28T01:29:04;29.90;;;18.42;;
45043;SDS011;30784;48.490;9.688;2024-02-28T01:31:30;44.63;;;27.20;;
45043;SDS011;30784;48.490;9.688;2024-02-28T01:33:55;30.73;;;17.67;;
45043;SDS011;30784;48.490;9.688;2024-02-28T01:36:21;30.90;;;17.50;;
45043;SDS011;30784;48.490;9.688;2024-02-28T01:38:47;28.67;;;15.73;;
45043;SDS011;30784;48.490;9.688;2024-02-28T01:41:12;30.63;;;16.13;;
45043;SDS011;30784;48.490;9.688;2024-02-28T01:43:38;28.05;;;15.90;;
45043;SDS011;30784;48.490;9.688;2024-02-28T01:46:04;28.75;;;16.15;;
45043;SDS011;30784;48.490;9.688;2024-02-28T01:48:38;27.38;;;16.15;;
45043;SDS011;30784;48.490;9.688;2024-02-28T01:51:04;27.85;;;15.80;;
45043;SDS011;30784;48.490;9.688;2024-02-28T01:53:30;27.50;;;15.52;;
45043;SDS011;30784;48.490;9.688;2024-02-28T01:55:56;28.42;;;16.13;;
45043;SDS011;30784;48.490;9.688;2024-02-28T01:58:22;29.25;;;16.60;;
45043;SDS011;30784;48.490;9.688;2024-02-28T02:00:48;28.80;;;15.82;;
45043;SDS011;30784;48.490;9.688;2024-02-28T02:03:14;28.33;;;16.63;;
45043;SDS011;30784;48.490;9.688;2024-02-28T02:05:41;28.38;;;16.45;;
45043;SDS011;30784;48.490;9.688;2024-02-28T02:08:07;29.52;;;16.48;;
45043;SDS011;30784;48.490;9.688;2024-02-28T02:10:33;26.77;;;15.93;;
45043;SDS011;30784;48.490;9.688;2024-02-28T02:13:05;27.45;;;16.35;;
45043;SDS011;30784;48.490;9.688;2024-02-28T02:15:31;28.38;;;16.23;;
45043;SDS011;30784;48.490;9.688;2024-02-28T02:17:56;29.17;;;17.98;;
45043;SDS011;30784;48.490;9.688;2024-02-28T02:20:22;29.10;;;16.90;;
45043;SDS011;30784;48.490;9.688;2024-02-28T02:22:49;29.45;;;17.13;;
45043;SDS011;30784;48.490;9.688;2024-02-28T02:25:14;30.90;;;17.90;;
45043;SDS011;30784;48.490;9.688;2024-02-28T02:27:40;28.05;;;16.35;;
45043;SDS011;30784;48.490;9.688;2024-02-28T02:30:05;30.85;;;17.80;;
45043;SDS011;30784;48.490;9.688;2024-02-28T02:32:31;30.40;;;17.27;;
45043;SDS011;30784;48.490;9.688;2024-02-28T02:34:57;31.10;;;16.90;;
45043;SDS011;30784;48.490;9.688;2024-02-28T02:37:22;29.30;;;17.25;;
45043;SDS011;30784;48.490;9.688;2024-02-28T02:39:48;31.48;;;17.95;;
45043;SDS011;30784;48.490;9.688;2024-02-28T02:42:14;30.80;;;18.10;;
45043;SDS011;30784;48.490;9.688;2024-02-28T02:44:40;31.98;;;17.23;;
45043;SDS011;30784;48.490;9.688;2024-02-28T02:47:05;31.42;;;18.10;;
45043;SDS011;30784;48.490;9.688;2024-02-28T02:49:31;30.67;;;17.75;;
45043;SDS011;30784;48.490;9.688;2024-02-28T02:51:56;28.90;;;16.63;;
45043;SDS011;30784;48.490;9.688;2024-02-28T02:54:22;32.95;;;17.60;;
45043;SDS011;30784;48.490;9.688;2024-02-28T02:56:47;32.33;;;17.98;;
45043;SDS011;30784;48.490;9.688;2024-02-28T02:59:13;33.72;;;18.17;;
45043;SDS011;30784;48.490;9.688;2024-02-28T03:01:39;33.67;;;19.27;;
45043;SDS011;30784;48.490;9.688;2024-02-28T03:04:05;32.13;;;18.30;;
45043;SDS011;30784;48.490;9.688;2024-02-28T03:06:30;31.25;;;18.17;;
45043;SDS011;30784;48.490;9.688;2024-02-28T03:08:57;32.13;;;17.63;;
45043;SDS011;30784;48.490;9.688;2024-02-28T03:11:23;32.35;;;17.40;;
45043;SDS011;30784;48.490;9.688;2024-02-28T03:13:48;31.05;;;17.80;;
45043;SDS011;30784;48.490;9.688;2024-02-28T03:16:14;33.78;;;18.30;;
45043;SDS011;30784;48.490;9.688;2024-02-28T03:18:39;33.90;;;17.58;;
45043;SDS011;30784;48.490;9.688;2024-02-28T03:21:05;32.42;;;17.13;;
45043;SDS011;30784;48.490;9.688;2024-02-28T03:23:31;31.10;;;16.77;;
45043;SDS011;30784;48.490;9.688;2024-02-28T03:25:58;30.77;;;17.55;;
45043;SDS011;30784;48.490;9.688;2024-02-28T03:28:23;33.00;;;17.65;;
45043;SDS011;30784;48.490;9.688;2024-02-28T03:30:49;32.17;;;17.08;;
45043;SDS011;30784;48.490;9.688;2024-02-28T03:33:14;32.20;;;17.67;;
45043;SDS011;30784;48.490;9.688;2024-02-28T03:35:40;33.88;;;18.27;;
45043;SDS011;30784;48.490;9.688;2024-02-28T03:38:05;30.52;;;16.98;;
45043;SDS011;30784;48.490;9.688;2024-02-28T03:40:31;31.58;;;17.92;;
45043;SDS011;30784;48.490;9.688;2024-02-28T03:42:56;31.17;;;17.60;;
45043;SDS011;30784;48.490;9.688;2024-02-28T03:45:24;31.42;;;18.02;;
45043;SDS011;30784;48.490;9.688;2024-02-28T03:47:52;33.00;;;18.35;;
45043;SDS011;30784;48.490;9.688;2024-02-28T03:50:17;32.17;;;18.17;;
45043;SDS011;30784;48.490;9.688;2024-02-28T03:52:43;31.42;;;18.00;;
45043;SDS011;30784;48.490;9.688;2024-02-28T03:55:08;33.45;;;18.27;;
45043;SDS011;30784;48.490;9.688;2024-02-28T03:57:34;32.22;;;18.52;;
45043;SDS011;30784;48.490;9.688;2024-02-28T04:00:01;31.90;;;18.15;;
45043;SDS011;30784;48.490;9.688;2024-02-28T04:02:27;34.67;;;19.30;;
45043;SDS011;30784;48.490;9.688;2024-02-28T04:04:53;33.60;;;19.30;;
45043;SDS011;30784;48.490;9.688;2024-02-28T04:07:18;35.30;;;18.85;;
45043;SDS011;30784;48.490;9.688;2024-02-28T04:09:44;31.00;;;16.77;;
45043;SDS011;30784;48.490;9.688;2024-02-28T04:12:09;33.03;;;18.23;;
45043;SDS011;30784;48.490;9.688;2024-02-28T04:14:37;32.45;;;18.58;;
45043;SDS011;30784;48.490;9.688;2024-02-28T04:17:03;30.67;;;18.52;;
45043;SDS011;30784;48.490;9.688;2024-02-28T04:19:32;31.27;;;17.40;;
45043;SDS011;30784;48.490;9.688;2024-02-28T04:21:59;31.10;;;17.15;;
45043;SDS011;30784;48.490;9.688;2024-02-28T04:24:24;31.13;;;18.27;;
45043;SDS011;30784;48.490;9.688;2024-02-28T04:26:50;29.55;;;16.63;;
45043;SDS011;30784;48.490;9.688;2024-02-28T04:29:18;29.42;;;16.83;;
45043;SDS011;30784;48.490;9.688;2024-02-28T04:31:44;31.63;;;17.77;;
45043;SDS011;30784;48.490;9.688;2024-02-28T04:34:09;32.17;;;18.45;;
45043;SDS011;30784;48.490;9.688;2024-02-28T04:36:35;30.08;;;17.42;;
45043;SDS011;30784;48.490;9.688;2024-02-28T04:39:00;32.70;;;18.55;;
45043;SDS011;30784;48.490;9.688;2024-02-28T04:41:26;31.88;;;17.02;;
45043;SDS011;30784;48.490;9.688;2024-02-28T04:43:55;31.30;;;18.17;;
45043;SDS011;30784;48.490;9.688;2024-02-28T04:46:20;31.73;;;17.58;;
45043;SDS011;30784;48.490;9.688;2024-02-28T04:48:46;31.52;;;17.65;;
45043;SDS011;30784;48.490;9.688;2024-02-28T04:51:14;30.73;;;18.10;;
45043;SDS011;30784;48.490;9.688;2024-02-28T04:53:42;28.88;;;17.00;;
45043;SDS011;30784;48.490;9.688;2024-02-28T04:56:08;31.48;;;17.42;;
45043;SDS011;30784;48.490;9.688;2024-02-28T04:58:33;32.35;;;18.25;;
45043;SDS011;30784;48.490;9.688;2024-02-28T05:01:01;30.58;;;16.90;;
45043;SDS011;30784;48.490;9.688;2024-02-28T05:03:26;32.35;;;16.95;;
45043;SDS011;30784;48.490;9.688;2024-02-28T05:05:52;31.52;;;17.60;;
45043;SDS011;30784;48.490;9.688;2024-02-28T05:08:19;29.05;;;16.58;;
45043;SDS011;30784;48.490;9.688;2024-02-28T05:10:45;30.60;;;17.83;;
45043;SDS011;30784;48.490;9.688;2024-02-28T05:13:10;32.17;;;17.80;;
45043;SDS011;30784;48.490;9.688;2024-02-28T05:15:36;30.90;;;18.00;;
45043;SDS011;30784;48.490;9.688;2024-02-28T05:18:01;30.92;;;16.73;;
45043;SDS011;30784;48.490;9.688;2024-02-28T05:20:27;30.67;;;17.42;;
45043;SDS011;30784;48.490;9.688;2024-02-28T05:22:53;33.50;;;18.35;;
45043;SDS011;30784;48.490;9.688;2024-02-28T05:25:18;33.13;;;18.05;;
45043;SDS011;30784;48.490;9.688;2024-02-28T05:27:44;33.13;;;17.55;;
45043;SDS011;30784;48.490;9.688;2024-02-28T05:30:10;30.58;;;17.27;;
45043;SDS011;30784;48.490;9.688;2024-02-28T05:32:35;34.00;;;18.02;;
45043;SDS011;30784;48.490;9.688;2024-02-28T05:35:01;30.88;;;17.65;;
45043;SDS011;30784;48.490;9.688;2024-02-28T05:37:27;29.58;;;16.88;;
45043;SDS011;30784;48.490;9.688;2024-02-28T05:39:52;31.42;;;17.58;;
45043;SDS011;30784;48.490;9.688;2024-02-28T05:42:18;32.67;;;18.27;;
45043;SDS011;30784;48.490;9.688;2024-02-28T05:44:50;30.70;;;17.13;;
45043;SDS011;30784;48.490;9.688;2024-02-28T05:47:15;31.25;;;17.83;;
45043;SDS011;30784;48.490;9.688;2024-02-28T05:49:41;34.53;;;18.85;;
45043;SDS011;30784;48.490;9.688;2024-02-28T05:52:07;36.80;;;19.45;;
45043;SDS011;30784;48.490;9.688;2024-02-28T05:54:33;33.88;;;18.48;;
45043;SDS011;30784;48.490;9.688;2024-02-28T05:57:01;35.05;;;19.55;;
45043;SDS011;30784;48.490;9.688;2024-02-28T05:59:26;33.75;;;18.95;;
45043;SDS011;30784;48.490;9.688;2024-02-28T06:01:52;36.22;;;19.83;;
45043;SDS011;30784;48.490;9.688;2024-02-28T06:04:18;35.50;;;17.73;;
45043;SDS011;30784;48.490;9.688;2024-02-28T06:06:43;31.42;;;17.48;;
45043;SDS011;30784;48.490;9.688;2024-02-28T06:09:09;32.08;;;17.83;;
45043;SDS011;30784;48.490;9.688;2024-02-28T06:11:35;30.70;;;17.88;;
45043;SDS011;30784;48.490;9.688;2024-02-28T06:14:01;31.33;;;17.83;;
45043;SDS011;30784;48.490;9.688;2024-02-28T06:16:28;32.08;;;16.88;;
45043;SDS011;30784;48.490;9.688;2024-02-28T06:18:54;31.58;;;17.95;;
45043;SDS011;30784;48.490;9.688;2024-02-28T06:21:21;34.83;;;18.40;;
45043;SDS011;30784;48.490;9.688;2024-02-28T06:23:48;33.00;;;18.23;;
45043;SDS011;30784;48.490;9.688;2024-02-28T06:26:13;31.08;;;16.73;;
45043;SDS011;30784;48.490;9.688;2024-02-28T06:28:45;32.92;;;18.48;;
45043;SDS011;30784;48.490;9.688;2024-02-28T06:31:17;31.95;;;17.73;;
45043;SDS011;30784;48.490;9.688;2024-02-28T06:33:46;31.95;;;16.98;;
45043;SDS011;30784;48.490;9.688;2024-02-28T06:36:11;35.00;;;17.73;;
45043;SDS011;30784;48.490;9.688;2024-02-28T06:38:37;32.53;;;17.73;;
45043;SDS011;30784;48.490;9.688;2024-02-28T06:41:06;29.08;;;16.20;;
45043;SDS011;30784;48.490;9.688;2024-02-28T06:43:34;31.80;;;16.77;;
45043;SDS011;30784;48.490;9.688;2024-02-28T06:46:00;29.95;;;16.88;;
45043;SDS011;30784;48.490;9.688;2024-02-28T06:48:26;28.67;;;16.50;;
45043;SDS011;30784;48.490;9.688;2024-02-28T06:50:52;29.30;;;16.85;;
45043;SDS011;30784;48.490;9.688;2024-02-28T06:53:18;28.02;;;15.63;;
45043;SDS011;30784;48.490;9.688;2024-02-28T06:55:43;28.85;;;16.30;;
45043;SDS011;30784;48.490;9.688;2024-02-28T06:58:10;29.63;;;17.05;;
45043;SDS011;30784;48.490;9.688;2024-02-28T07:00:36;30.17;;;17.02;;
45043;SDS011;30784;48.490;9.688;2024-02-28T07:03:01;28.92;;;15.98;;
45043;SDS011;30784;48.490;9.688;2024-02-28T07:05:27;29.55;;;16.35;;
45043;SDS011;30784;48.490;9.688;2024-02-28T07:07:52;29.70;;;16.60;;
45043;SDS011;30784;48.490;9.688;2024-02-28T07:10:18;31.38;;;16.83;;
45043;SDS011;30784;48.490;9.688;2024-02-28T07:12:44;30.70;;;17.25;;
45043;SDS011;30784;48.490;9.688;2024-02-28T07:15:09;29.95;;;17.23;;
45043;SDS011;30784;48.490;9.688;2024-02-28T07:17:35;32.60;;;18.20;;
45043;SDS011;30784;48.490;9.688;2024-02-28T07:20:00;31.35;;;17.10;;
45043;SDS011;30784;48.490;9.688;2024-02-28T07:22:26;31.52;;;17.27;;
45043;SDS011;30784;48.490;9.688;2024-02-28T07:24:52;29.45;;;16.92;;
45043;SDS011;30784;48.490;9.688;2024-02-28T07:27:17;30.30;;;16.83;;
45043;SDS011;30784;48.490;9.688;2024-02-28T07:29:43;31.88;;;17.88;;
45043;SDS011;30784;48.490;9.688;2024-02-28T07:32:09;33.45;;;18.20;;
45043;SDS011;30784;48.490;9.688;2024-02-28T07:34:34;34.92;;;18.13;;
45043;SDS011;30784;48.490;9.688;2024-02-28T07:37:00;33.00;;;18.33;;
45043;SDS011;30784;48.490;9.688;2024-02-28T07:39:25;31.65;;;17.45;;
45043;SDS011;30784;48.490;9.688;2024-02-28T07:41:52;30.50;;;17.15;;
45043;SDS011;30784;48.490;9.688;2024-02-28T07:44:17;34.50;;;17.77;;
45043;SDS011;30784;48.490;9.688;2024-02-28T07:46:43;33.97;;;18.08;;
45043;SDS011;30784;48.490;9.688;2024-02-28T07:49:09;31.70;;;17.77;;
45043;SDS011;30784;48.490;9.688;2024-02-28T07:51:35;28.65;;;16.48;;
45043;SDS011;30784;48.490;9.688;2024-02-28T07:54:01;31.05;;;17.00;;
45043;SDS011;30784;48.490;9.688;2024-02-28T07:56:27;30.88;;;17.35;;
45043;SDS011;30784;48.490;9.688;2024-02-28T07:58:54;32.25;;;18.38;;
45043;SDS011;30784;48.490;9.688;2024-02-28T08:01:19;30.75;;;16.83;;
45043;SDS011;30784;48.490;9.688;2024-02-28T08:03:47;31.25;;;16.63;;
45043;SDS011;30784;48.490;9.688;2024-02-28T08:06:12;30.45;;;16.52;;
45043;SDS011;30784;48.490;9.688;2024-02-28T08:08:38;30.63;;;17.08;;
45043;SDS011;30784;48.490;9.688;2024-02-28T08:11:03;30.38;;;16.90;;
45043;SDS011;30784;48.490;9.688;2024-02-28T08:13:29;33.95;;;19.75;;
45043;SDS011;30784;48.490;9.688;2024-02-28T08:15:57;35.17;;;20.45;;
45043;SDS011;30784;48.490;9.688;2024-02-28T08:18:23;34.72;;;19.42;;
45043;SDS011;30784;48.490;9.688;2024-02-28T08:20:48;30.95;;;16.80;;
45043;SDS011;30784;48.490;9.688;2024-02-28T08:23:14;30.15;;;16.63;;
45043;SDS011;30784;48.490;9.688;2024-02-28T08:25:40;30.58;;;16.23;;
45043;SDS011;30784;48.490;9.688;2024-02-28T08:28:05;33.00;;;17.83;;
45043;SDS011;30784;48.490;9.688;2024-02-28T08:30:31;32.15;;;17.00;;
45043;SDS011;30784;48.490;9.688;2024-02-28T08:32:59;31.33;;;17.60;;
45043;SDS011;30784;48.490;9.688;2024-02-28T08:35:24;30.08;;;16.88;;
45043;SDS011;30784;48.490;9.688;2024-02-28T08:37:50;30.45;;;15.32;;
45043;SDS011;30784;48.490;9.688;2024-02-28T08:40:15;28.55;;;16.17;;
45043;SDS011;30784;48.490;9.688;2024-02-28T08:42:41;29.25;;;16.17;;
45043;SDS011;30784;48.490;9.688;2024-02-28T08:45:06;29.88;;;15.88;;
45043;SDS011;30784;48.490;9.688;2024-02-28T08:47:33;31.88;;;16.23;;
45043;SDS011;30784;48.490;9.688;2024-02-28T08:49:58;27.73;;;15.93;;
45043;SDS011;30784;48.490;9.688;2024-02-28T08:52:24;29.95;;;16.80;;
45043;SDS011;30784;48.490;9.688;2024-02-28T08:54:50;29.38;;;16.13;;
45043;SDS011;30784;48.490;9.688;2024-02-28T08:57:15;30.02;;;16.73;;
45043;SDS011;30784;48.490;9.688;2024-02-28T08:59:41;30.30;;;16.35;;
45043;SDS011;30784;48.490;9.688;2024-02-28T09:02:07;28.67;;;15.68;;
45043;SDS011;30784;48.490;9.688;2024-02-28T09:04:33;27.60;;;13.88;;
45043;SDS011;30784;48.490;9.688;2024-02-28T09:06:59;28.98;;;15.65;;
45043;SDS011;30784;48.490;9.688;2024-02-28T09:09:24;30.23;;;15.90;;
45043;SDS011;30784;48.490;9.688;2024-02-28T09:11:50;28.42;;;15.52;;
45043;SDS011;30784;48.490;9.688;2024-02-28T09:14:15;29.33;;;16.48;;
45043;SDS011;30784;48.490;9.688;2024-02-28T09:16:41;28.15;;;15.55;;
45043;SDS011;30784;48.490;9.688;2024-02-28T09:19:07;26.50;;;14.73;;
45043;SDS011;30784;48.490;9.688;2024-02-28T09:21:32;27.27;;;15.23;;
45043;SDS011;30784;48.490;9.688;2024-02-28T09:23:58;27.60;;;14.88;;
45043;SDS011;30784;48.490;9.688;2024-02-28T09:26:23;27.50;;;14.73;;
45043;SDS011;30784;48.490;9.688;2024-02-28T09:28:49;29.02;;;15.57;;
45043;SDS011;30784;48.490;9.688;2024-02-28T09:31:14;27.85;;;15.43;;
45043;SDS011;30784;48.490;9.688;2024-02-28T09:33:43;29.02;;;15.70;;
45043;SDS011;30784;48.490;9.688;2024-02-28T09:36:10;27.88;;;15.13;;
45043;SDS011;30784;48.490;9.688;2024-02-28T09:38:36;28.33;;;15.95;;
45043;SDS011;30784;48.490;9.688;2024-02-28T09:41:02;28.60;;;15.25;;
45043;SDS011;30784;48.490;9.688;2024-02-28T09:43:28;24.98;;;13.55;;
45043;SDS011;30784;48.490;9.688;2024-02-28T09:45:57;24.88;;;14.65;;
45043;SDS011;30784;48.490;9.688;2024-02-28T09:48:30;25.60;;;14.27;;
45043;SDS011;30784;48.490;9.688;2024-02-28T09:50:56;31.80;;;16.17;;
45043;SDS011;30784;48.490;9.688;2024-02-28T09:53:22;30.58;;;17.17;;
45043;SDS011;30784;48.490;9.688;2024-02-28T09:55:49;31.20;;;17.77;;
45043;SDS011;30784;48.490;9.688;2024-02-28T09:58:15;29.13;;;15.20;;
45043;SDS011;30784;48.490;9.688;2024-02-28T10:00:42;29.27;;;16.02;;
45043;SDS011;30784;48.490;9.688;2024-02-28T10:03:10;32.42;;;15.07;;
45043;SDS011;30784;48.490;9.688;2024-02-28T10:05:38;32.47;;;16.92;;
45043;SDS011;30784;48.490;9.688;2024-02-28T10:08:04;30.17;;;15.57;;
45043;SDS011;30784;48.490;9.688;2024-02-28T10:10:30;30.45;;;15.23;;
45043;SDS011;30784;48.490;9.688;2024-02-28T10:12:56;32.20;;;16.75;;
45043;SDS011;30784;48.490;9.688;2024-02-28T10:15:23;28.73;;;16.17;;
45043;SDS011;30784;48.490;9.688;2024-02-28T10:17:51;32.35;;;17.02;;
45043;SDS011;30784;48.490;9.688;2024-02-28T10:20:16;31.45;;;16.23;;
45043;SDS011;30784;48.490;9.688;2024-02-28T10:22:42;31.35;;;16.95;;
45043;SDS011;30784;48.490;9.688;2024-02-28T10:25:08;31.02;;;16.85;;
45043;SDS011;30784;48.490;9.688;2024-02-28T10:27:34;33.50;;;17.50;;
45043;SDS011;30784;48.490;9.688;2024-02-28T10:30:00;32.78;;;16.45;;
45043;SDS011;30784;48.490;9.688;2024-02-28T10:32:29;31.15;;;16.05;;
45043;SDS011;30784;48.490;9.688;2024-02-28T10:35:02;31.45;;;16.23;;
45043;SDS011;30784;48.490;9.688;2024-02-28T10:37:28;31.63;;;16.27;;
45043;SDS011;30784;48.490;9.688;2024-02-28T10:39:57;30.77;;;16.53;;
45043;SDS011;30784;48.490;9.688;2024-02-28T10:42:25;29.63;;;15.35;;
45043;SDS011;30784;48.490;9.688;2024-02-28T10:44:52;34.20;;;16.98;;
45043;SDS011;30784;48.490;9.688;2024-02-28T10:47:19;31.35;;;16.17;;
45043;SDS011;30784;48.490;9.688;2024-02-28T10:49:45;27.65;;;15.27;;
45043;SDS011;30784;48.490;9.688;2024-02-28T10:52:11;29.92;;;15.70;;
45043;SDS011;30784;48.490;9.688;2024-02-28T10:54:38;29.60;;;14.82;;
45043;SDS011;30784;48.490;9.688;2024-02-28T10:57:08;26.67;;;14.07;;
45043;SDS011;30784;48.490;9.688;2024-02-28T10:59:37;25.60;;;13.98;;
45043;SDS011;30784;48.490;9.688;2024-02-28T11:02:04;25.95;;;13.73;;
45043;SDS011;30784;48.490;9.688;2024-02-28T11:04:31;25.92;;;13.77;;
45043;SDS011;30784;48.490;9.688;2024-02-28T11:06:56;27.98;;;14.75;;
45043;SDS011;30784;48.490;9.688;2024-02-28T11:09:22;25.80;;;14.48;;
45043;SDS011;30784;48.490;9.688;2024-02-28T11:11:52;26.70;;;14.63;;
45043;SDS011;30784;48.490;9.688;2024-02-28T11:14:18;25.90;;;14.27;;
45043;SDS011;30784;48.490;9.688;2024-02-28T11:16:47;25.92;;;13.77;;
45043;SDS011;30784;48.490;9.688;2024-02-28T11:19:24;26.75;;;13.43;;
45043;SDS011;30784;48.490;9.688;2024-02-28T11:21:55;23.17;;;12.25;;
45043;SDS011;30784;48.490;9.688;2024-02-28T11:24:23;23.58;;;12.38;;
45043;SDS011;30784;48.490;9.688;2024-02-28T11:26:52;23.57;;;13.17;;
45043;SDS011;30784;48.490;9.688;2024-02-28T11:29:27;22.08;;;12.48;;
45043;SDS011;30784;48.490;9.688;2024-02-28T11:31:54;21.90;;;12.32;;
45043;SDS011;30784;48.490;9.688;2024-02-28T11:34:20;25.77;;;13.48;;
45043;SDS011;30784;48.490;9.688;2024-02-28T11:36:50;24.27;;;13.52;;
45043;SDS011;30784;48.490;9.688;2024-02-28T11:39:16;26.40;;;13.55;;
45043;SDS011;30784;48.490;9.688;2024-02-28T11:41:43;25.30;;;13.60;;
45043;SDS011;30784;48.490;9.688;2024-02-28T11:44:13;26.73;;;14.00;;
45043;SDS011;30784;48.490;9.688;2024-02-28T11:46:42;24.48;;;13.15;;
45043;SDS011;30784;48.490;9.688;2024-02-28T11:49:14;25.20;;;13.63;;
45043;SDS011;30784;48.490;9.688;2024-02-28T11:51:44;29.43;;;15.03;;
45043;SDS011;30784;48.490;9.688;2024-02-28T11:54:10;24.65;;;14.18;;
45043;SDS011;30784;48.490;9.688;2024-02-28T11:56:37;27.63;;;15.50;;
45043;SDS011;30784;48.490;9.688;2024-02-28T11:59:03;24.95;;;13.77;;
45043;SDS011;30784;48.490;9.688;2024-02-28T12:01:36;26.92;;;14.38;;
45043;SDS011;30784;48.490;9.688;2024-02-28T12:04:06;26.15;;;13.00;;
45043;SDS011;30784;48.490;9.688;2024-02-28T12:06:33;24.65;;;13.18;;
45043;SDS011;30784;48.490;9.688;2024-02-28T12:09:01;25.88;;;14.52;;
45043;SDS011;30784;48.490;9.688;2024-02-28T12:11:28;26.83;;;14.27;;
45043;SDS011;30784;48.490;9.688;2024-02-28T12:13:55;23.20;;;12.93;;
45043;SDS011;30784;48.490;9.688;2024-02-28T12:16:24;26.20;;;13.88;;
45043;SDS011;30784;48.490;9.688;2024-02-28T12:18:51;25.08;;;13.93;;
45043;SDS011;30784;48.490;9.688;2024-02-28T12:21:17;24.20;;;13.15;;
45043;SDS011;30784;48.490;9.688;2024-02-28T12:23:43;24.17;;;13.60;;
45043;SDS011;30784;48.490;9.688;2024-02-28T12:26:09;25.70;;;14.23;;
45043;SDS011;30784;48.490;9.688;2024-02-28T12:28:34;25.77;;;14.23;;
45043;SDS011;30784;48.490;9.688;2024-02-28T12:31:00;27.27;;;14.50;;
45043;SDS011;30784;48.490;9.688;2024-02-28T12:33:25;25.10;;;14.50;;
45043;SDS011;30784;48.490;9.688;2024-02-28T12:35:51;27.00;;;14.18;;
45043;SDS011;30784;48.490;9.688;2024-02-28T12:38:17;28.00;;;15.20;;
45043;SDS011;30784;48.490;9.688;2024-02-28T12:40:42;28.20;;;15.40;;
45043;SDS011;30784;48.490;9.688;2024-02-28T12:43:08;25.70;;;14.88;;
45043;SDS011;30784;48.490;9.688;2024-02-28T12:45:33;27.27;;;15.27;;
45043;SDS011;30784;48.490;9.688;2024-02-28T12:47:59;26.75;;;14.65;;
45043;SDS011;30784;48.490;9.688;2024-02-28T12:50:26;25.27;;;14.48;;
45043;SDS011;30784;48.490;9.688;2024-02-28T12:52:52;26.35;;;15.00;;
45043;SDS011;30784;48.490;9.688;2024-02-28T12:55:19;28.25;;;15.13;;
45043;SDS011;30784;48.490;9.688;2024-02-28T12:57:46;21.25;;;13.18;;
45043;SDS011;30784;48.490;9.688;2024-02-28T13:00:12;25.05;;;13.70;;
45043;SDS011;30784;48.490;9.688;2024-02-28T13:02:38;25.02;;;14.57;;
45043;SDS011;30784;48.490;9.688;2024-02-28T13:05:03;25.05;;;13.77;;
45043;SDS011;30784;48.490;9.688;2024-02-28T13:07:29;34.53;;;18.75;;
45043;SDS011;30784;48.490;9.688;2024-02-28T13:09:55;32.90;;;18.65;;
45043;SDS011;30784;48.490;9.688;2024-02-28T13:12:21;27.77;;;15.40;;
45043;SDS011;30784;48.490;9.688;2024-02-28T13:14:47;25.02;;;14.50;;
45043;SDS011;30784;48.490;9.688;2024-02-28T13:17:13;26.13;;;14.13;;
45043;SDS011;30784;48.490;9.688;2024-02-28T13:19:40;25.85;;;14.55;;
45043;SDS011;30784;48.490;9.688;2024-02-28T13:22:05;25.45;;;14.90;;
45043;SDS011;30784;48.490;9.688;2024-02-28T13:24:31;25.88;;;15.23;;
45043;SDS011;30784;48.490;9.688;2024-02-28T13:26:57;27.88;;;14.63;;
45043;SDS011;30784;48.490;9.688;2024-02-28T13:29:22;24.67;;;14.45;;
45043;SDS011;30784;48.490;9.688;2024-02-28T13:31:48;25.50;;;15.00;;
45043;SDS011;30784;48.490;9.688;2024-02-28T13:34:14;25.77;;;14.70;;
45043;SDS011;30784;48.490;9.688;2024-02-28T13:36:39;25.30;;;14.45;;
45043;SDS011;30784;48.490;9.688;2024-02-28T13:39:07;27.75;;;15.55;;
45043;SDS011;30784;48.490;9.688;2024-02-28T13:41:34;26.40;;;14.73;;
45043;SDS011;30784;48.490;9.688;2024-02-28T13:43:59;25.90;;;14.88;;
45043;SDS011;30784;48.490;9.688;2024-02-28T13:46:25;26.90;;;15.02;;
45043;SDS011;30784;48.490;9.688;2024-02-28T13:48:51;26.73;;;15.18;;
45043;SDS011;30784;48.490;9.688;2024-02-28T13:51:16;29.15;;;15.77;;
45043;SDS011;30784;48.490;9.688;2024-02-28T13:53:42;27.10;;;15.20;;
45043;SDS011;30784;48.490;9.688;2024-02-28T13:56:07;26.50;;;15.73;;
45043;SDS011;30784;48.490;9.688;2024-02-28T13:58:33;28.00;;;15.93;;
45043;SDS011;30784;48.490;9.688;2024-02-28T14:00:58;28.23;;;15.88;;
45043;SDS011;30784;48.490;9.688;2024-02-28T14:03:24;26.27;;;15.02;;
45043;SDS011;30784;48.490;9.688;2024-02-28T14:05:50;28.65;;;15.98;;
45043;SDS011;30784;48.490;9.688;2024-02-28T14:08:17;28.40;;;16.45;;
45043;SDS011;30784;48.490;9.688;2024-02-28T14:10:42;26.63;;;15.20;;
45043;SDS011;30784;48.490;9.688;2024-02-28T14:13:08;30.17;;;16.63;;
45043;SDS011;30784;48.490;9.688;2024-02-28T14:15:36;30.35;;;17.00;;